Flight Track Log - Related Links

Times and Time Zones

All times are in EDT time to prevent confusion due to time zone crossing. See the UAL3756 flight status page for this flight to view local times or setup timezone preferences in your user account.

Time Position Orientation Groundspeed Altitude Reporting Facility
EDT Latitude Longitude Course Direction KTS MPH feet Rate Location/Type
Sun 11:36:52 AM 25.7981 -80.2744 82° East 148 170 700  Level Miami Center
Sun 11:37:41 AM 25.8033 -80.2331 82° East 192 221 2,400 1,784 Climbing Miami Center
Sun 11:38:43 AM 25.8089 -80.1664 85° East 248 285 4,000 2,000 Climbing Miami Center
Sun 11:39:44 AM 25.8661 -80.1378 24° Northeast 285 328 6,500 2,328 Climbing Miami Center
Sun 11:40:39 AM 25.9003 -80.1942 304° West 318 366 8,500 2,191 Climbing Miami Center
Sun 11:41:39 AM 25.9381 -80.2783 297° West 324 373 10,700 1,600 Climbing Miami Center
Sun 11:42:39 AM 25.9794 -80.3767 295° West 325 374 11,700 1,500 Climbing Miami Center
Sun 11:43:39 AM 26.0231 -80.4797 295° West 348 400 13,700 2,000 Climbing Miami Center
Sun 11:44:39 AM 26.0664 -80.5850 295° West 368 423 15,700 2,000 Climbing Miami Center
Sun 11:45:39 AM 26.1286 -80.6772 307° West 373 429 17,700 1,750 Climbing Miami Center
Sun 11:46:39 AM 26.2100 -80.7586 318° Northwest 383 441 19,200 1,600 Climbing Miami Center
Sun 11:47:39 AM 26.2972 -80.8517 316° Northwest 383 441 20,900 1,600 Climbing Miami Center
Sun 11:48:39 AM 26.3786 -80.9381 316° Northwest 395 455 22,400 1,400 Climbing Miami Center
Sun 11:49:39 AM 26.4658 -81.0244 318° Northwest 413 475 23,700 1,250 Climbing Miami Center
Sun 11:50:39 AM 26.5533 -81.1089 319° Northwest 413 475 24,900 1,200 Climbing Miami Center
Sun 11:51:39 AM 26.6403 -81.1981 317° Northwest 413 475 26,100 1,150 Climbing Miami Center
Sun 11:52:39 AM 26.7172 -81.2797 317° Northwest 413 475 27,200 950 Climbing Miami Center
Sun 11:53:39 AM 26.8064 -81.3692 318° Northwest 413 475 28,000 400 Climbing Miami Center
Sun 11:54:39 AM 26.9011 -81.4800 314° West 431 496 28,000 300 Level Miami Center
Sun 11:55:39 AM 26.9875 -81.5814 314° West 440 506 28,600 450 Climbing Miami Center
Sun 11:56:39 AM 27.0786 -81.6667 320° Northwest 435 501 28,900 550 Climbing Miami Center
Sun 11:57:39 AM 27.1839 -81.7061 342° North 426 490 29,700 1,350 Climbing Miami Center
Sun 11:58:39 AM 27.2950 -81.7481 341° North 426 490 31,600 1,400 Climbing Miami Center
Sun 11:59:39 AM 27.4125 -81.7950 340° North 412 474 32,500 1,050 Climbing Miami Center
Sun 12:00:39 PM 27.5197 -81.8325 343° North 407 468 33,700 466 Climbing Miami Center
Sun 12:02:52 PM 27.7519 -81.9172 342° North 413 475 34,000 93 Climbing Jacksonville Center
Sun 12:03:52 PM 27.8836 -81.9722 340° North 446 513 34,000  Level Jacksonville Center
Sun 12:04:52 PM 28.0008 -82.0228 339° North 451 519 34,000  Level Jacksonville Center
Sun 12:05:52 PM 28.1142 -82.0925 332° Northwest 451 519 34,000  Level Jacksonville Center
Sun 12:06:52 PM 28.2231 -82.1622 331° Northwest 451 519 34,000  Level Jacksonville Center
Sun 12:07:52 PM 28.3297 -82.2300 331° Northwest 446 513 34,000  Level Jacksonville Center
Sun 12:08:52 PM 28.4367 -82.3000 330° Northwest 441 507 34,000  Level Jacksonville Center
Sun 12:09:52 PM 28.5453 -82.3656 332° Northwest 441 507 34,000 -50 Level Jacksonville Center
Sun 12:10:52 PM 28.6519 -82.4358 330° Northwest 441 507 33,900  Descending Jacksonville Center
Sun 12:11:52 PM 28.7544 -82.5042 330° Northwest 436 502 34,000 50 Climbing Jacksonville Center
Sun 12:12:52 PM 28.8633 -82.5725 331° Northwest 436 502 34,000  Level Jacksonville Center
Sun 12:13:52 PM 28.9719 -82.6411 331° Northwest 442 509 34,000 950 Level Jacksonville Center
Sun 12:14:52 PM 29.0764 -82.7097 330° Northwest 437 503 35,900 1,000 Climbing Jacksonville Center
Sun 12:15:52 PM 29.1789 -82.7736 331° Northwest 427 491 36,000 50 Climbing Jacksonville Center
Sun 12:16:52 PM 29.2789 -82.8403 330° Northwest 422 486 36,000 -50 Level Jacksonville Center
Sun 12:17:52 PM 29.3856 -82.9092 331° Northwest 428 493 35,900  Descending Jacksonville Center
Sun 12:18:52 PM 29.4878 -82.9761 330° Northwest 428 493 36,000 50 Climbing Jacksonville Center
Sun 12:19:52 PM 29.5983 -83.0478 331° Northwest 438 504 36,000 -50 Level Jacksonville Center
Sun 12:20:52 PM 29.7111 -83.1006 338° Northwest 438 504 35,900  Descending Jacksonville Center
Sun 12:21:52 PM 29.8278 -83.1558 338° Northwest 438 504 36,000 50 Climbing Jacksonville Center
Sun 12:22:52 PM 29.9425 -83.2089 338° Northwest 444 511 36,000  Level Jacksonville Center
Sun 12:23:52 PM 30.0425 -83.2550 338° Northwest 433 498 36,000  Level Jacksonville Center
Sun 12:24:52 PM 30.1594 -83.3083 338° Northwest 433 498 36,000  Level Jacksonville Center
Sun 12:25:52 PM 30.2719 -83.3617 338° Northwest 433 498 36,000 -50 Level Jacksonville Center
Sun 12:26:52 PM 30.3908 -83.4150 339° North 433 498 35,900 -50 Descending Jacksonville Center
Sun 12:27:52 PM 30.5033 -83.4689 338° Northwest 433 498 35,900  Level Jacksonville Center
Sun 12:28:52 PM 30.6178 -83.5203 339° North 433 498 35,900 50 Level Jacksonville Center
Sun 12:29:52 PM 30.7261 -83.5742 337° Northwest 433 498 36,000 50 Climbing Jacksonville Center
Sun 12:30:52 PM 30.8406 -83.6306 337° Northwest 428 493 36,000  Level Jacksonville Center
Sun 12:31:52 PM 30.9511 -83.6822 338° Northwest 428 493 36,000  Level Jacksonville Center
Sun 12:32:52 PM 31.0633 -83.7367 337° Northwest 434 499 36,000  Level Jacksonville Center
Sun 12:33:52 PM 31.1758 -83.7911 338° Northwest 434 499 36,000  Level Jacksonville Center
Sun 12:36:18 PM 31.4522 -83.9244 338° Northwest 446 513 36,000  Level Atlanta Center
Sun 12:37:18 PM 31.5672 -83.9706 341° North 446 513 36,000  Level Atlanta Center
Sun 12:38:18 PM 31.6903 -83.9997 349° North 440 506 36,000  Level Atlanta Center
Sun 12:39:18 PM 31.8239 -84.0267 350° North 440 506 36,000  Level Atlanta Center
Sun 12:40:18 PM 31.9428 -84.0536 349° North 440 506 36,000  Level Atlanta Center
Sun 12:41:18 PM 32.0617 -84.0781 350° North 440 506 36,000  Level Atlanta Center
Sun 12:42:18 PM 32.1828 -84.1050 349° North 435 501 36,000  Level Atlanta Center
Sun 12:43:18 PM 32.3017 -84.1322 349° North 430 495 36,000  Level Atlanta Center
Sun 12:44:18 PM 32.4250 -84.1619 349° North 430 495 36,000  Level Atlanta Center
Sun 12:45:18 PM 32.5458 -84.1867 350° North 430 495 36,000  Level Atlanta Center
Sun 12:46:18 PM 32.6650 -84.2164 348° North 430 495 36,000  Level Atlanta Center
Sun 12:47:18 PM 32.7858 -84.2439 349° North 430 495 36,000  Level Atlanta Center
Sun 12:48:18 PM 32.9069 -84.2689 350° North 430 495 36,000 100 Level Atlanta Center
Sun 12:49:18 PM 33.0258 -84.2989 348° North 430 495 36,200 1,000 Climbing Atlanta Center
Sun 12:50:18 PM 33.1406 -84.3242 350° North 425 489 38,000 900 Climbing Atlanta Center
Sun 12:51:18 PM 33.2533 -84.3494 349° North 412 474 38,000  Level Atlanta Center
Sun 12:52:18 PM 33.3681 -84.3747 350° North 412 474 38,000  Level Atlanta Center
Sun 12:53:18 PM 33.4722 -84.4000 349° North 412 474 38,000  Level Atlanta Center
Sun 12:54:18 PM 33.5869 -84.4278 349° North 417 480 38,000  Level Atlanta Center
Sun 12:55:18 PM 33.7058 -84.4458 353° North 417 480 38,000  Level Atlanta Center
Sun 12:56:18 PM 33.8206 -84.4614 354° North 422 486 38,000  Level Atlanta Center
Sun 12:57:18 PM 33.9439 -84.4769 354° North 427 491 38,000  Level Atlanta Center
Sun 12:58:18 PM 34.0606 -84.4903 355° North 427 491 38,000  Level Atlanta Center
Sun 12:59:18 PM 34.1961 -84.5033 355° North 440 506 38,000  Level Atlanta Center
Sun 01:00:18 PM 34.3150 -84.5167 355° North 440 506 38,000  Level Atlanta Center
Sun 01:01:18 PM 34.4339 -84.5325 354° North 434 499 38,000  Level Atlanta Center
Sun 01:02:18 PM 34.5425 -84.5456 354° North 434 499 38,000  Level Atlanta Center
Sun 01:03:18 PM 34.6614 -84.5614 354° North 429 494 38,000  Level Atlanta Center
Sun 01:04:18 PM 34.7864 -84.5775 354° North 423 487 38,000  Level Atlanta Center
Sun 01:05:18 PM 34.9075 -84.5908 355° North 423 487 38,000  Level Atlanta Center
Sun 01:06:19 PM 35.0264 -84.6069 354° North 423 487 38,000  Level Atlanta Center
Sun 01:07:18 PM 35.1472 -84.6206 355° North 423 487 38,000  Level Atlanta Center
Sun 01:08:18 PM 35.2683 -84.6367 354° North 423 487 38,000  Level Atlanta Center
Sun 01:09:18 PM 35.3892 -84.6503 355° North 428 493 38,000  Level Atlanta Center
Sun 01:10:18 PM 35.5144 -84.6664 354° North 433 498 38,000  Level Atlanta Center
Sun 01:11:18 PM 35.6353 -84.6800 355° North 433 498 38,000  Level Atlanta Center
Sun 01:13:03 PM 35.8497 -84.7067 354° North 444 511 38,000  Level Indianapolis Center
Sun 01:14:05 PM 35.9703 -84.7217 354° North 444 511 38,000  Level Indianapolis Center
Sun 01:15:06 PM 36.0914 -84.7381 354° North 445 512 38,000  Level Indianapolis Center
Sun 01:16:08 PM 36.2153 -84.7539 354° North 448 516 38,000  Level Indianapolis Center
Sun 01:17:10 PM 36.3411 -84.7625 357° North 453 521 38,000  Level Indianapolis Center
Sun 01:18:12 PM 36.4983 -84.7572 North 468 539 38,000  Level Indianapolis Center
Sun 01:19:14 PM 36.6286 -84.7558 360° North 469 540 38,000  Level Indianapolis Center
Sun 01:20:16 PM 36.7608 -84.7533 North 472 543 38,000  Level Indianapolis Center
Sun 01:21:18 PM 36.8936 -84.7506 North 475 547 38,000  Level Indianapolis Center
Sun 01:22:19 PM 37.0258 -84.7483 North 476 548 38,000  Level Indianapolis Center
Sun 01:23:21 PM 37.1606 -84.7447 North 478 550 38,000  Level Indianapolis Center
Sun 01:24:23 PM 37.3133 -84.7694 353° North 471 542 38,000  Level Indianapolis Center
Sun 01:25:25 PM 37.4397 -84.8047 348° North 465 535 38,000  Level Indianapolis Center
Sun 01:26:27 PM 37.5664 -84.8403 347° North 466 536 38,000  Level Indianapolis Center
Sun 01:27:29 PM 37.6936 -84.8758 348° North 466 536 38,000  Level Indianapolis Center
Sun 01:28:30 PM 37.8206 -84.9106 348° North 465 535 38,000  Level Indianapolis Center
Sun 01:29:32 PM 37.9522 -84.9444 349° North 476 548 38,000  Level Indianapolis Center
Sun 01:30:34 PM 38.0800 -84.9803 348° North 470 541 38,000 -242 Level Indianapolis Center
Sun 01:31:36 PM 38.2311 -85.0225 348° North 474 545 37,500 -581 Descending Indianapolis Center
Sun 01:32:38 PM 38.3642 -85.0600 348° North 486 559 36,800 -683 Descending Indianapolis Center
Sun 01:33:39 PM 38.4981 -85.0992 347° North 491 565 36,100 -387 Descending Indianapolis Center
Sun 01:34:42 PM 38.6408 -85.1381 348° North 494 568 36,000 -48 Descending Indianapolis Center
Sun 01:35:43 PM 38.7750 -85.1767 347° North 490 564 36,000  Level Indianapolis Center
Sun 01:36:45 PM 38.9067 -85.2142 348° North 482 555 36,000 -726 Level Indianapolis Center
Sun 01:37:47 PM 39.0394 -85.2517 348° North 485 558 34,500 -1,210 Descending Indianapolis Center
Sun 01:38:49 PM 39.1736 -85.2914 347° North 491 565 33,500 -1,366 Descending Indianapolis Center
Sun 01:39:50 PM 39.3047 -85.3283 348° North 483 556 31,700 -1,707 Descending Indianapolis Center
Sun 01:40:52 PM 39.4594 -85.3731 347° North 485 558 30,000 -823 Descending Indianapolis Center
Sun 01:41:54 PM 39.5897 -85.4114 347° North 480 552 30,000  Level Indianapolis Center
Sun 01:42:56 PM 39.7178 -85.4483 347° North 473 544 30,000 -677 Level Indianapolis Center
Sun 01:43:58 PM 39.8464 -85.4864 347° North 473 544 28,600 -1,500 Descending Indianapolis Center
Sun 01:45:00 PM 39.9767 -85.5250 347° North 477 549 26,900 -1,268 Descending Indianapolis Center
Sun 01:46:01 PM 40.1047 -85.5622 347° North 473 544 26,000 -458 Descending Indianapolis Center
Sun 01:46:58 PM 40.2333 -85.5997 347° North 475 547 26,000 -353 Level Chicago Center
Sun 01:48:00 PM 40.3667 -85.6389 347° North 486 559 25,300 -968 Descending Chicago Center
Sun 01:49:02 PM 40.4836 -85.7022 338° Northwest 467 537 24,000 -629 Descending Chicago Center
Sun 01:50:04 PM 40.5758 -85.8533 309° West 456 525 24,000  Level Chicago Center
Sun 01:51:05 PM 40.6558 -85.9858 309° West 461 531 24,000 -98 Level Chicago Center
Sun 01:52:07 PM 40.7250 -86.1044 308° West 469 540 23,800 -1,104 Descending Chicago Center
Sun 01:53:10 PM 40.8172 -86.2578 309° West 443 510 21,700 -1,839 Descending Chicago Center
Sun 01:54:11 PM 40.8894 -86.3794 308° West 424 488 20,000 -1,659 Descending Chicago Center
Sun 01:55:13 PM 40.9597 -86.4972 308° West 411 473 18,300 -1,645 Descending Chicago Center
Sun 01:56:15 PM 41.0278 -86.6133 308° West 401 461 16,600 -1,694 Descending Chicago Center
Sun 01:57:17 PM 41.0989 -86.7331 308° West 388 447 14,800 -1,694 Descending Chicago Center
Sun 01:58:19 PM 41.1642 -86.8456 308° West 389 448 13,100 -1,500 Descending Chicago Center
Sun 01:59:21 PM 41.2283 -86.9569 307° West 384 442 11,700 -1,024 Descending Chicago Center
Sun 02:00:22 PM 41.2919 -87.0661 308° West 379 436 11,000 -341 Descending Chicago Center
Sun 02:01:24 PM 41.3678 -87.1953 308° West 372 428 11,000 61 Level Chicago Center
Sun 02:02:01 PM 41.4167 -87.2500 320° Northwest 354 407 11,100  Climbing Chicago TRACON
Sun 02:03:01 PM 41.4833 -87.3333 317° Northwest 347 399 11,000 -50 Descending Chicago TRACON
Sun 02:04:01 PM 41.5667 -87.4167 323° Northwest 345 397 11,000  Level Chicago TRACON
Sun 02:04:30 PM 41.5828 -87.4467 306° West 345 397 11,000 66 Level Chicago Center
Sun 02:05:32 PM 41.6572 -87.5283 321° Northwest 349 402 11,100  Climbing Chicago Center
Sun 02:06:34 PM 41.7467 -87.6292 320° Northwest 354 407 11,000 -145 Descending Chicago Center
Sun 02:06:55 PM 41.7667 -87.6500 322° Northwest 342 394 10,900 -963 Descending Chicago TRACON
Sun 02:07:55 PM 41.8333 -87.7333 317° Northwest 287 330 9,700 -1,500 Descending Chicago TRACON
Sun 02:08:55 PM 41.8833 -87.8167 309° West 288 331 7,900 -1,300 Descending Chicago TRACON
Sun 02:09:55 PM 41.8833 -87.9167 270° West 275 316 7,100 -474 Descending Chicago TRACON
Sun 02:10:49 PM 41.8833 -88.0000 270° West 282 325 7,000 -1,105 Descending Chicago TRACON
Sun 02:11:49 PM 41.8833 -88.1000 270° West 273 314 5,000 -1,538 Descending Chicago TRACON
Sun 02:12:46 PM 41.8844 -88.1964 271° West 272 313 4,000 -504 Descending Chicago Center
Sun 02:13:48 PM 41.9439 -88.2336 335° Northwest 266 306 4,000 48 Level Chicago Center
Sun 02:14:50 PM 41.9733 -88.1650 60° Northeast 261 300 4,100 -689 Climbing Chicago Center
Sun 02:15:50 PM 41.9667 -88.0667 95° East 244 281 2,600 -1,250 Descending Chicago TRACON
Sun 02:16:50 PM 41.9667 -87.9833 90° East 174 200 1,600 -900 Descending Chicago TRACON
Sun 02:17:50 PM 41.9667 -87.9333 90° East 141 162 800 -800 Descending Chicago TRACON
Sun 02:19:00 PM 41.9667 -87.9000 73° East  Level FlightAware Approximate
Sun 02:26:00 PM 41.9817 -87.9067 73° East  Level Estimated

Login

Don't have an account? Register now (free) for customized features, flight alerts, and more!